Impacts TAF Board INFO
FOR SITUATIONAL AWARENESS. NOT TO BE USED FOR FLIGHT PLANNING PURPOSES.
IDs:

KLAS - Las Vegas/McCarran I, NV, US

Issued at 1131 UTC 21 Jan 2018
Updated at 1417 UTC 21 Jan 2018
Potential Impact None Slight Moderate High
Time1356Z 21/15Z 21/16Z 21/17Z 21/18Z 21/19Z 21/20Z 21/21Z 21/22Z 21/23Z 22/00Z 22/01Z 22/02Z 22/03Z>>
Type OBS PRVL PRVL PRVL PRVL PRVL PRVL PRVL PRVL PRVL PRVL PRVL PRVL PRVL
VIS 10 >6 >6 >6 >6 >6 >6 >6 >6 >6 >6 >6 >6 >6
CIG -- -- -- -- -- -- -- -- -- -- -- -- 250 250
Cover CLR SKC SKC SKC SKC SKC SKC SKC FEW FEW FEW FEW BKN BKN
FltCat VFR VFR VFR VFR VFR VFR VFR VFR VFR VFR VFR VFR VFR VFR
WX -- -- -- -- -- -- -- -- -- -- -- -- -- --
WDir 10 360 360 360 360 360 360 360 60 60 60 60 220 220
WSpd 8 12 12 12 12 12 12 12 6 6 6 6 6 6
WGst -- 20 20 20 20 20 20 20 -- -- -- -- -- --

Raw TAF
KLAS 211131Z 2112/2218 36012G20KT P6SM SKC
  FM212200 06006KT P6SM FEW250
  FM220200 22006KT P6SM BKN250


Raw METAR
KLAS 211356Z 01008KT 10SM CLR 05/M09 A3021 RMK AO2 SLP232 T00501094 $
KLAS 211256Z 34013KT 10SM CLR 07/M11 A3018 RMK AO2 SLP219 T00671106 $
KLAS 211156Z 34009KT 10SM CLR 06/M11 A3016 RMK AO2 SLP214 T00611106 10078 20061 53009 $

METAR Board
Radar Display
Forecast Discussion

FOR SITUATIONAL AWARENESS. NOT TO BE USED FOR FLIGHT PLANNING PURPOSES.